sensor_id;sensor_type;location;lat;lon;timestamp;P1;durP1;ratioP1;P2;durP2;ratioP2
53267;SDS011;39156;51.176;6.738;2023-07-31T00:00:24;38.10;;;35.70;;
53267;SDS011;39156;51.176;6.738;2023-07-31T00:02:51;37.00;;;34.40;;
53267;SDS011;39156;51.176;6.738;2023-07-31T00:05:17;36.45;;;34.28;;
53267;SDS011;39156;51.176;6.738;2023-07-31T00:07:43;35.53;;;33.37;;
53267;SDS011;39156;51.176;6.738;2023-07-31T00:10:09;36.97;;;34.87;;
53267;SDS011;39156;51.176;6.738;2023-07-31T00:12:35;36.90;;;34.63;;
53267;SDS011;39156;51.176;6.738;2023-07-31T00:15:01;36.27;;;33.97;;
53267;SDS011;39156;51.176;6.738;2023-07-31T00:17:27;36.55;;;34.35;;
53267;SDS011;39156;51.176;6.738;2023-07-31T00:19:53;36.57;;;34.43;;
53267;SDS011;39156;51.176;6.738;2023-07-31T00:22:18;36.73;;;34.63;;
53267;SDS011;39156;51.176;6.738;2023-07-31T00:24:44;36.10;;;33.90;;
53267;SDS011;39156;51.176;6.738;2023-07-31T00:27:10;38.83;;;36.53;;
53267;SDS011;39156;51.176;6.738;2023-07-31T00:29:36;37.47;;;35.27;;
53267;SDS011;39156;51.176;6.738;2023-07-31T00:32:01;35.60;;;33.23;;
53267;SDS011;39156;51.176;6.738;2023-07-31T00:34:27;36.37;;;34.20;;
53267;SDS011;39156;51.176;6.738;2023-07-31T00:36:53;37.23;;;35.17;;
53267;SDS011;39156;51.176;6.738;2023-07-31T00:39:19;36.60;;;34.50;;
53267;SDS011;39156;51.176;6.738;2023-07-31T00:41:45;38.67;;;36.53;;
53267;SDS011;39156;51.176;6.738;2023-07-31T00:44:10;35.73;;;33.53;;
53267;SDS011;39156;51.176;6.738;2023-07-31T00:46:36;36.97;;;34.70;;
53267;SDS011;39156;51.176;6.738;2023-07-31T00:49:02;37.00;;;34.47;;
53267;SDS011;39156;51.176;6.738;2023-07-31T00:51:28;38.00;;;35.67;;
53267;SDS011;39156;51.176;6.738;2023-07-31T00:53:54;35.53;;;33.30;;
53267;SDS011;39156;51.176;6.738;2023-07-31T00:56:21;37.25;;;34.92;;
53267;SDS011;39156;51.176;6.738;2023-07-31T00:58:47;35.25;;;33.22;;
53267;SDS011;39156;51.176;6.738;2023-07-31T01:01:13;36.77;;;34.27;;
53267;SDS011;39156;51.176;6.738;2023-07-31T01:03:39;35.50;;;33.20;;
53267;SDS011;39156;51.176;6.738;2023-07-31T01:12:01;37.28;;;34.90;;
53267;SDS011;39156;51.176;6.738;2023-07-31T01:14:29;36.17;;;33.80;;
53267;SDS011;39156;51.176;6.738;2023-07-31T01:16:55;37.53;;;35.17;;
53267;SDS011;39156;51.176;6.738;2023-07-31T01:19:21;35.10;;;33.08;;
53267;SDS011;39156;51.176;6.738;2023-07-31T01:27:37;36.40;;;34.30;;
53267;SDS011;39156;51.176;6.738;2023-07-31T01:30:15;36.80;;;34.60;;
53267;SDS011;39156;51.176;6.738;2023-07-31T01:32:47;38.53;;;36.15;;
53267;SDS011;39156;51.176;6.738;2023-07-31T01:35:14;36.80;;;34.40;;
53267;SDS011;39156;51.176;6.738;2023-07-31T01:37:40;37.80;;;35.53;;
53267;SDS011;39156;51.176;6.738;2023-07-31T01:40:06;37.57;;;34.97;;
53267;SDS011;39156;51.176;6.738;2023-07-31T01:42:32;37.15;;;34.65;;
53267;SDS011;39156;51.176;6.738;2023-07-31T01:44:58;35.37;;;33.17;;
53267;SDS011;39156;51.176;6.738;2023-07-31T01:47:24;36.53;;;34.10;;
53267;SDS011;39156;51.176;6.738;2023-07-31T01:49:49;37.37;;;35.07;;
53267;SDS011;39156;51.176;6.738;2023-07-31T01:52:15;36.40;;;34.17;;
53267;SDS011;39156;51.176;6.738;2023-07-31T01:54:41;39.97;;;37.30;;
53267;SDS011;39156;51.176;6.738;2023-07-31T01:57:06;37.03;;;34.63;;
53267;SDS011;39156;51.176;6.738;2023-07-31T01:59:32;37.23;;;34.73;;
53267;SDS011;39156;51.176;6.738;2023-07-31T02:01:58;37.10;;;34.70;;
53267;SDS011;39156;51.176;6.738;2023-07-31T02:04:23;38.97;;;36.23;;
53267;SDS011;39156;51.176;6.738;2023-07-31T02:06:49;36.90;;;34.60;;
53267;SDS011;39156;51.176;6.738;2023-07-31T02:09:15;37.80;;;35.53;;
53267;SDS011;39156;51.176;6.738;2023-07-31T02:11:40;37.73;;;35.43;;
53267;SDS011;39156;51.176;6.738;2023-07-31T02:14:06;36.20;;;33.90;;
53267;SDS011;39156;51.176;6.738;2023-07-31T02:16:32;36.63;;;34.33;;
53267;SDS011;39156;51.176;6.738;2023-07-31T02:18:57;37.00;;;34.60;;
53267;SDS011;39156;51.176;6.738;2023-07-31T02:21:23;36.00;;;33.70;;
53267;SDS011;39156;51.176;6.738;2023-07-31T02:23:49;37.87;;;35.60;;
53267;SDS011;39156;51.176;6.738;2023-07-31T02:26:14;36.47;;;34.07;;
53267;SDS011;39156;51.176;6.738;2023-07-31T02:28:40;35.27;;;32.70;;
53267;SDS011;39156;51.176;6.738;2023-07-31T02:31:08;37.47;;;35.13;;
53267;SDS011;39156;51.176;6.738;2023-07-31T02:33:33;36.43;;;34.13;;
53267;SDS011;39156;51.176;6.738;2023-07-31T02:35:59;37.70;;;35.27;;
53267;SDS011;39156;51.176;6.738;2023-07-31T02:40:57;36.28;;;33.67;;
53267;SDS011;39156;51.176;6.738;2023-07-31T02:43:23;36.87;;;34.53;;
53267;SDS011;39156;51.176;6.738;2023-07-31T02:45:52;37.17;;;34.90;;
53267;SDS011;39156;51.176;6.738;2023-07-31T02:48:18;36.97;;;34.75;;
53267;SDS011;39156;51.176;6.738;2023-07-31T02:50:44;37.60;;;35.07;;
53267;SDS011;39156;51.176;6.738;2023-07-31T02:53:12;36.58;;;34.15;;
53267;SDS011;39156;51.176;6.738;2023-07-31T02:55:38;35.77;;;33.67;;
53267;SDS011;39156;51.176;6.738;2023-07-31T02:58:03;38.57;;;36.33;;
53267;SDS011;39156;51.176;6.738;2023-07-31T03:00:29;38.00;;;34.80;;
53267;SDS011;39156;51.176;6.738;2023-07-31T03:02:55;36.97;;;34.67;;
53267;SDS011;39156;51.176;6.738;2023-07-31T03:05:20;37.87;;;35.40;;
53267;SDS011;39156;51.176;6.738;2023-07-31T03:07:46;36.67;;;34.43;;
53267;SDS011;39156;51.176;6.738;2023-07-31T03:10:12;36.17;;;33.67;;
53267;SDS011;39156;51.176;6.738;2023-07-31T03:12:38;35.00;;;32.90;;
53267;SDS011;39156;51.176;6.738;2023-07-31T03:15:03;37.60;;;35.40;;
53267;SDS011;39156;51.176;6.738;2023-07-31T03:17:29;35.58;;;33.38;;
53267;SDS011;39156;51.176;6.738;2023-07-31T03:19:55;36.03;;;33.33;;
53267;SDS011;39156;51.176;6.738;2023-07-31T03:22:21;37.50;;;35.20;;
53267;SDS011;39156;51.176;6.738;2023-07-31T03:24:46;35.23;;;32.80;;
53267;SDS011;39156;51.176;6.738;2023-07-31T03:27:12;36.90;;;34.50;;
53267;SDS011;39156;51.176;6.738;2023-07-31T03:29:38;36.47;;;34.10;;
53267;SDS011;39156;51.176;6.738;2023-07-31T03:32:03;36.60;;;34.20;;
53267;SDS011;39156;51.176;6.738;2023-07-31T03:34:30;34.70;;;32.60;;
53267;SDS011;39156;51.176;6.738;2023-07-31T03:36:57;35.90;;;33.90;;
53267;SDS011;39156;51.176;6.738;2023-07-31T03:39:23;37.38;;;34.70;;
53267;SDS011;39156;51.176;6.738;2023-07-31T03:41:49;37.90;;;35.33;;
53267;SDS011;39156;51.176;6.738;2023-07-31T03:44:15;33.97;;;31.87;;
53267;SDS011;39156;51.176;6.738;2023-07-31T03:46:40;36.50;;;34.33;;
53267;SDS011;39156;51.176;6.738;2023-07-31T03:49:06;34.67;;;31.97;;
53267;SDS011;39156;51.176;6.738;2023-07-31T03:51:32;36.93;;;34.70;;
53267;SDS011;39156;51.176;6.738;2023-07-31T03:53:58;34.10;;;31.87;;
53267;SDS011;39156;51.176;6.738;2023-07-31T03:56:23;36.83;;;34.03;;
53267;SDS011;39156;51.176;6.738;2023-07-31T03:58:49;37.53;;;35.10;;
53267;SDS011;39156;51.176;6.738;2023-07-31T04:01:15;34.53;;;32.50;;
53267;SDS011;39156;51.176;6.738;2023-07-31T04:03:40;35.63;;;33.60;;
53267;SDS011;39156;51.176;6.738;2023-07-31T04:06:06;34.80;;;32.60;;
53267;SDS011;39156;51.176;6.738;2023-07-31T04:08:32;36.03;;;33.85;;
53267;SDS011;39156;51.176;6.738;2023-07-31T04:10:58;36.30;;;34.17;;
53267;SDS011;39156;51.176;6.738;2023-07-31T04:13:24;37.47;;;34.97;;
53267;SDS011;39156;51.176;6.738;2023-07-31T04:15:52;35.63;;;33.42;;
53267;SDS011;39156;51.176;6.738;2023-07-31T04:18:19;37.47;;;35.28;;
53267;SDS011;39156;51.176;6.738;2023-07-31T04:20:45;34.73;;;32.50;;
53267;SDS011;39156;51.176;6.738;2023-07-31T04:23:11;36.40;;;34.00;;
53267;SDS011;39156;51.176;6.738;2023-07-31T04:25:36;35.07;;;32.83;;
53267;SDS011;39156;51.176;6.738;2023-07-31T04:28:02;36.97;;;34.70;;
53267;SDS011;39156;51.176;6.738;2023-07-31T04:30:28;36.53;;;34.13;;
53267;SDS011;39156;51.176;6.738;2023-07-31T04:32:54;37.43;;;34.93;;
53267;SDS011;39156;51.176;6.738;2023-07-31T04:35:19;36.97;;;34.57;;
53267;SDS011;39156;51.176;6.738;2023-07-31T04:37:45;35.37;;;33.17;;
53267;SDS011;39156;51.176;6.738;2023-07-31T04:40:13;36.30;;;33.80;;
53267;SDS011;39156;51.176;6.738;2023-07-31T04:42:40;35.28;;;33.05;;
53267;SDS011;39156;51.176;6.738;2023-07-31T04:45:07;36.13;;;33.67;;
53267;SDS011;39156;51.176;6.738;2023-07-31T04:47:34;34.40;;;32.30;;
53267;SDS011;39156;51.176;6.738;2023-07-31T04:49:59;36.23;;;33.93;;
53267;SDS011;39156;51.176;6.738;2023-07-31T04:52:25;35.70;;;33.23;;
53267;SDS011;39156;51.176;6.738;2023-07-31T04:54:51;36.03;;;33.57;;
53267;SDS011;39156;51.176;6.738;2023-07-31T04:57:16;36.90;;;34.60;;
53267;SDS011;39156;51.176;6.738;2023-07-31T04:59:42;37.00;;;34.60;;
53267;SDS011;39156;51.176;6.738;2023-07-31T05:02:08;35.93;;;33.43;;
53267;SDS011;39156;51.176;6.738;2023-07-31T05:04:34;35.08;;;32.88;;
53267;SDS011;39156;51.176;6.738;2023-07-31T05:07:00;33.90;;;32.03;;
53267;SDS011;39156;51.176;6.738;2023-07-31T05:09:25;33.57;;;31.50;;
53267;SDS011;39156;51.176;6.738;2023-07-31T05:11:51;35.17;;;33.17;;
53267;SDS011;39156;51.176;6.738;2023-07-31T05:14:17;33.40;;;31.37;;
53267;SDS011;39156;51.176;6.738;2023-07-31T05:16:42;36.20;;;34.10;;
53267;SDS011;39156;51.176;6.738;2023-07-31T05:19:08;34.47;;;32.37;;
53267;SDS011;39156;51.176;6.738;2023-07-31T05:21:34;35.37;;;33.27;;
53267;SDS011;39156;51.176;6.738;2023-07-31T05:23:59;38.43;;;35.77;;
53267;SDS011;39156;51.176;6.738;2023-07-31T05:26:25;35.77;;;33.37;;
53267;SDS011;39156;51.176;6.738;2023-07-31T05:28:50;33.80;;;31.80;;
53267;SDS011;39156;51.176;6.738;2023-07-31T05:31:16;36.70;;;34.60;;
53267;SDS011;39156;51.176;6.738;2023-07-31T05:33:42;35.63;;;33.43;;
53267;SDS011;39156;51.176;6.738;2023-07-31T05:36:07;33.93;;;31.73;;
53267;SDS011;39156;51.176;6.738;2023-07-31T05:38:34;35.10;;;33.10;;
53267;SDS011;39156;51.176;6.738;2023-07-31T05:40:59;34.37;;;32.30;;
53267;SDS011;39156;51.176;6.738;2023-07-31T05:43:25;33.80;;;31.83;;
53267;SDS011;39156;51.176;6.738;2023-07-31T05:45:51;34.03;;;31.90;;
53267;SDS011;39156;51.176;6.738;2023-07-31T05:48:16;34.07;;;32.17;;
53267;SDS011;39156;51.176;6.738;2023-07-31T05:50:43;34.90;;;32.73;;
53267;SDS011;39156;51.176;6.738;2023-07-31T05:53:09;34.42;;;32.20;;
53267;SDS011;39156;51.176;6.738;2023-07-31T05:55:35;33.45;;;31.33;;
53267;SDS011;39156;51.176;6.738;2023-07-31T05:58:01;35.20;;;33.00;;
53267;SDS011;39156;51.176;6.738;2023-07-31T06:00:27;34.95;;;32.95;;
53267;SDS011;39156;51.176;6.738;2023-07-31T06:02:53;35.37;;;33.13;;
53267;SDS011;39156;51.176;6.738;2023-07-31T06:05:18;34.43;;;32.53;;
53267;SDS011;39156;51.176;6.738;2023-07-31T06:07:44;34.27;;;32.20;;
53267;SDS011;39156;51.176;6.738;2023-07-31T06:10:10;34.93;;;32.90;;
53267;SDS011;39156;51.176;6.738;2023-07-31T06:12:35;35.47;;;33.37;;
53267;SDS011;39156;51.176;6.738;2023-07-31T06:15:01;33.50;;;31.57;;
53267;SDS011;39156;51.176;6.738;2023-07-31T06:17:28;35.30;;;33.00;;
53267;SDS011;39156;51.176;6.738;2023-07-31T06:19:54;35.70;;;33.50;;
53267;SDS011;39156;51.176;6.738;2023-07-31T06:22:21;36.15;;;33.85;;
53267;SDS011;39156;51.176;6.738;2023-07-31T06:24:47;34.50;;;32.37;;
53267;SDS011;39156;51.176;6.738;2023-07-31T06:27:12;33.80;;;31.80;;
53267;SDS011;39156;51.176;6.738;2023-07-31T06:29:38;32.37;;;30.50;;
53267;SDS011;39156;51.176;6.738;2023-07-31T06:32:04;34.07;;;31.97;;
53267;SDS011;39156;51.176;6.738;2023-07-31T06:34:29;34.43;;;32.20;;
53267;SDS011;39156;51.176;6.738;2023-07-31T06:36:55;35.00;;;32.90;;
53267;SDS011;39156;51.176;6.738;2023-07-31T06:39:21;34.10;;;32.15;;
53267;SDS011;39156;51.176;6.738;2023-07-31T06:41:47;37.20;;;34.90;;
53267;SDS011;39156;51.176;6.738;2023-07-31T06:44:13;36.70;;;34.63;;
53267;SDS011;39156;51.176;6.738;2023-07-31T06:46:39;33.63;;;31.83;;
53267;SDS011;39156;51.176;6.738;2023-07-31T06:49:04;35.80;;;33.80;;
53267;SDS011;39156;51.176;6.738;2023-07-31T06:51:30;33.67;;;31.63;;
53267;SDS011;39156;51.176;6.738;2023-07-31T06:54:00;34.92;;;32.83;;
53267;SDS011;39156;51.176;6.738;2023-07-31T06:56:26;34.07;;;32.13;;
53267;SDS011;39156;51.176;6.738;2023-07-31T06:58:52;34.88;;;32.78;;
53267;SDS011;39156;51.176;6.738;2023-07-31T07:01:18;35.07;;;32.93;;
53267;SDS011;39156;51.176;6.738;2023-07-31T07:03:44;32.73;;;30.83;;
53267;SDS011;39156;51.176;6.738;2023-07-31T07:06:09;33.93;;;31.83;;
53267;SDS011;39156;51.176;6.738;2023-07-31T07:08:35;34.97;;;32.77;;
53267;SDS011;39156;51.176;6.738;2023-07-31T07:11:01;33.07;;;31.27;;
53267;SDS011;39156;51.176;6.738;2023-07-31T07:13:26;32.60;;;30.77;;
53267;SDS011;39156;51.176;6.738;2023-07-31T07:15:52;35.30;;;33.17;;
53267;SDS011;39156;51.176;6.738;2023-07-31T07:18:18;34.97;;;32.60;;
53267;SDS011;39156;51.176;6.738;2023-07-31T07:20:50;34.33;;;32.17;;
53267;SDS011;39156;51.176;6.738;2023-07-31T07:23:17;32.95;;;31.15;;
53267;SDS011;39156;51.176;6.738;2023-07-31T07:25:44;34.53;;;32.47;;
53267;SDS011;39156;51.176;6.738;2023-07-31T07:28:11;34.13;;;32.00;;
53267;SDS011;39156;51.176;6.738;2023-07-31T07:30:36;35.13;;;32.97;;
53267;SDS011;39156;51.176;6.738;2023-07-31T07:33:02;34.00;;;32.20;;
53267;SDS011;39156;51.176;6.738;2023-07-31T07:35:28;36.13;;;33.60;;
53267;SDS011;39156;51.176;6.738;2023-07-31T07:37:54;34.83;;;32.37;;
53267;SDS011;39156;51.176;6.738;2023-07-31T07:40:20;35.27;;;33.10;;
53267;SDS011;39156;51.176;6.738;2023-07-31T07:42:46;34.60;;;32.70;;
53267;SDS011;39156;51.176;6.738;2023-07-31T07:45:12;33.57;;;31.77;;
53267;SDS011;39156;51.176;6.738;2023-07-31T07:47:40;34.55;;;32.53;;
53267;SDS011;39156;51.176;6.738;2023-07-31T07:50:06;34.00;;;31.98;;
53267;SDS011;39156;51.176;6.738;2023-07-31T07:52:32;34.92;;;32.63;;
53267;SDS011;39156;51.176;6.738;2023-07-31T07:54:58;36.00;;;33.87;;
53267;SDS011;39156;51.176;6.738;2023-07-31T07:59:51;34.90;;;32.90;;
53267;SDS011;39156;51.176;6.738;2023-07-31T08:02:16;34.67;;;32.23;;
53267;SDS011;39156;51.176;6.738;2023-07-31T08:04:42;35.53;;;33.43;;
53267;SDS011;39156;51.176;6.738;2023-07-31T08:07:10;32.17;;;30.07;;
53267;SDS011;39156;51.176;6.738;2023-07-31T08:09:37;34.10;;;32.05;;
53267;SDS011;39156;51.176;6.738;2023-07-31T08:12:03;34.80;;;32.53;;
53267;SDS011;39156;51.176;6.738;2023-07-31T08:16:55;34.58;;;32.75;;
53267;SDS011;39156;51.176;6.738;2023-07-31T08:19:21;34.10;;;32.00;;
53267;SDS011;39156;51.176;6.738;2023-07-31T08:21:47;32.70;;;31.00;;
53267;SDS011;39156;51.176;6.738;2023-07-31T08:24:13;33.80;;;31.80;;
53267;SDS011;39156;51.176;6.738;2023-07-31T08:26:38;35.63;;;33.53;;
53267;SDS011;39156;51.176;6.738;2023-07-31T08:29:04;33.67;;;31.50;;
53267;SDS011;39156;51.176;6.738;2023-07-31T08:31:30;35.87;;;33.87;;
53267;SDS011;39156;51.176;6.738;2023-07-31T08:33:55;32.57;;;30.77;;
53267;SDS011;39156;51.176;6.738;2023-07-31T08:36:21;32.73;;;30.87;;
53267;SDS011;39156;51.176;6.738;2023-07-31T08:38:47;32.40;;;30.50;;
53267;SDS011;39156;51.176;6.738;2023-07-31T08:41:13;32.77;;;30.80;;
53267;SDS011;39156;51.176;6.738;2023-07-31T08:43:39;32.50;;;30.67;;
53267;SDS011;39156;51.176;6.738;2023-07-31T08:46:05;33.50;;;31.60;;
53267;SDS011;39156;51.176;6.738;2023-07-31T08:48:31;32.33;;;30.63;;
53267;SDS011;39156;51.176;6.738;2023-07-31T08:50:58;33.13;;;31.13;;
53267;SDS011;39156;51.176;6.738;2023-07-31T08:53:23;32.57;;;30.60;;
53267;SDS011;39156;51.176;6.738;2023-07-31T08:55:49;31.75;;;29.95;;
53267;SDS011;39156;51.176;6.738;2023-07-31T08:58:17;33.05;;;31.05;;
53267;SDS011;39156;51.176;6.738;2023-07-31T09:00:45;35.30;;;33.42;;
53267;SDS011;39156;51.176;6.738;2023-07-31T09:03:15;33.47;;;31.67;;
53267;SDS011;39156;51.176;6.738;2023-07-31T09:05:44;35.60;;;33.55;;
53267;SDS011;39156;51.176;6.738;2023-07-31T09:08:12;32.65;;;30.85;;
53267;SDS011;39156;51.176;6.738;2023-07-31T09:10:44;32.42;;;30.30;;
53267;SDS011;39156;51.176;6.738;2023-07-31T09:13:15;33.35;;;31.45;;
53267;SDS011;39156;51.176;6.738;2023-07-31T09:15:42;32.88;;;31.05;;
53267;SDS011;39156;51.176;6.738;2023-07-31T09:18:10;32.88;;;31.05;;
53267;SDS011;39156;51.176;6.738;2023-07-31T09:20:36;32.55;;;30.67;;
53267;SDS011;39156;51.176;6.738;2023-07-31T09:23:12;33.17;;;31.15;;
53267;SDS011;39156;51.176;6.738;2023-07-31T09:25:39;32.97;;;31.10;;
53267;SDS011;39156;51.176;6.738;2023-07-31T09:28:09;32.95;;;31.15;;
53267;SDS011;39156;51.176;6.738;2023-07-31T09:30:49;34.15;;;32.15;;
53267;SDS011;39156;51.176;6.738;2023-07-31T09:33:17;31.70;;;30.00;;
53267;SDS011;39156;51.176;6.738;2023-07-31T09:35:44;32.78;;;30.88;;
53267;SDS011;39156;51.176;6.738;2023-07-31T09:38:10;34.55;;;32.50;;
53267;SDS011;39156;51.176;6.738;2023-07-31T09:40:39;34.53;;;32.53;;
53267;SDS011;39156;51.176;6.738;2023-07-31T09:43:19;32.30;;;30.50;;
53267;SDS011;39156;51.176;6.738;2023-07-31T09:45:46;33.00;;;31.10;;
53267;SDS011;39156;51.176;6.738;2023-07-31T09:48:13;33.28;;;31.42;;
53267;SDS011;39156;51.176;6.738;2023-07-31T09:50:42;32.63;;;30.83;;
53267;SDS011;39156;51.176;6.738;2023-07-31T09:53:13;33.60;;;31.75;;
53267;SDS011;39156;51.176;6.738;2023-07-31T09:55:41;32.80;;;30.90;;
53267;SDS011;39156;51.176;6.738;2023-07-31T09:58:10;32.05;;;30.15;;
53267;SDS011;39156;51.176;6.738;2023-07-31T10:00:37;32.83;;;31.02;;
53267;SDS011;39156;51.176;6.738;2023-07-31T10:03:07;32.45;;;30.65;;
53267;SDS011;39156;51.176;6.738;2023-07-31T10:05:36;32.45;;;30.65;;
53267;SDS011;39156;51.176;6.738;2023-07-31T10:08:06;32.97;;;31.17;;
53267;SDS011;39156;51.176;6.738;2023-07-31T10:10:35;32.58;;;30.65;;
53267;SDS011;39156;51.176;6.738;2023-07-31T10:13:02;35.30;;;33.28;;
53267;SDS011;39156;51.176;6.738;2023-07-31T10:15:31;33.00;;;31.17;;
53267;SDS011;39156;51.176;6.738;2023-07-31T10:17:57;32.80;;;31.05;;
53267;SDS011;39156;51.176;6.738;2023-07-31T10:22:52;32.47;;;30.58;;
53267;SDS011;39156;51.176;6.738;2023-07-31T10:25:20;32.88;;;30.98;;
53267;SDS011;39156;51.176;6.738;2023-07-31T10:27:47;33.85;;;31.95;;
53267;SDS011;39156;51.176;6.738;2023-07-31T10:30:17;32.60;;;30.58;;
53267;SDS011;39156;51.176;6.738;2023-07-31T10:32:45;32.95;;;31.15;;
53267;SDS011;39156;51.176;6.738;2023-07-31T10:35:14;32.33;;;30.52;;
53267;SDS011;39156;51.176;6.738;2023-07-31T10:37:41;31.45;;;29.65;;
53267;SDS011;39156;51.176;6.738;2023-07-31T10:40:18;32.78;;;30.88;;
53267;SDS011;39156;51.176;6.738;2023-07-31T10:42:53;31.85;;;30.05;;
53267;SDS011;39156;51.176;6.738;2023-07-31T10:45:38;31.70;;;29.90;;
53267;SDS011;39156;51.176;6.738;2023-07-31T10:48:16;31.23;;;29.35;;
53267;SDS011;39156;51.176;6.738;2023-07-31T10:50:46;31.55;;;29.67;;
53267;SDS011;39156;51.176;6.738;2023-07-31T10:56:13;31.00;;;29.30;;
53267;SDS011;39156;51.176;6.738;2023-07-31T10:58:44;31.05;;;29.35;;
53267;SDS011;39156;51.176;6.738;2023-07-31T11:01:11;31.40;;;29.70;;
53267;SDS011;39156;51.176;6.738;2023-07-31T11:03:47;31.37;;;29.73;;
53267;SDS011;39156;51.176;6.738;2023-07-31T11:06:16;32.05;;;30.25;;
53267;SDS011;39156;51.176;6.738;2023-07-31T11:11:15;31.27;;;29.55;;
53267;SDS011;39156;51.176;6.738;2023-07-31T11:16:22;29.95;;;28.25;;
53267;SDS011;39156;51.176;6.738;2023-07-31T11:18:49;31.33;;;29.52;;
53267;SDS011;39156;51.176;6.738;2023-07-31T11:21:18;30.70;;;29.00;;
53267;SDS011;39156;51.176;6.738;2023-07-31T11:23:49;31.15;;;29.52;;
53267;SDS011;39156;51.176;6.738;2023-07-31T11:26:22;30.50;;;28.92;;
53267;SDS011;39156;51.176;6.738;2023-07-31T11:28:50;30.25;;;28.55;;
53267;SDS011;39156;51.176;6.738;2023-07-31T11:31:16;30.73;;;29.13;;
53267;SDS011;39156;51.176;6.738;2023-07-31T11:33:43;29.08;;;27.48;;
53267;SDS011;39156;51.176;6.738;2023-07-31T11:36:16;30.85;;;29.27;;
53267;SDS011;39156;51.176;6.738;2023-07-31T11:38:43;29.98;;;28.27;;
53267;SDS011;39156;51.176;6.738;2023-07-31T11:41:09;29.15;;;27.65;;
53267;SDS011;39156;51.176;6.738;2023-07-31T11:43:35;30.20;;;28.70;;
53267;SDS011;39156;51.176;6.738;2023-07-31T11:46:01;30.83;;;28.77;;
53267;SDS011;39156;51.176;6.738;2023-07-31T11:48:28;31.33;;;29.52;;
53267;SDS011;39156;51.176;6.738;2023-07-31T11:51:03;32.65;;;30.70;;
53267;SDS011;39156;51.176;6.738;2023-07-31T11:53:41;31.58;;;29.98;;
53267;SDS011;39156;51.176;6.738;2023-07-31T11:56:16;30.42;;;28.90;;
53267;SDS011;39156;51.176;6.738;2023-07-31T11:58:48;30.52;;;28.92;;
53267;SDS011;39156;51.176;6.738;2023-07-31T12:01:18;30.70;;;29.10;;
53267;SDS011;39156;51.176;6.738;2023-07-31T12:03:46;30.73;;;29.13;;
53267;SDS011;39156;51.176;6.738;2023-07-31T12:06:13;31.00;;;29.40;;
53267;SDS011;39156;51.176;6.738;2023-07-31T12:08:38;32.70;;;30.90;;
53267;SDS011;39156;51.176;6.738;2023-07-31T12:11:05;30.50;;;28.90;;
53267;SDS011;39156;51.176;6.738;2023-07-31T12:13:36;30.52;;;28.92;;
53267;SDS011;39156;51.176;6.738;2023-07-31T12:16:02;30.53;;;28.93;;
53267;SDS011;39156;51.176;6.738;2023-07-31T12:18:30;31.38;;;29.67;;
53267;SDS011;39156;51.176;6.738;2023-07-31T12:21:01;31.52;;;29.83;;
53267;SDS011;39156;51.176;6.738;2023-07-31T12:23:31;30.33;;;28.73;;
53267;SDS011;39156;51.176;6.738;2023-07-31T12:26:11;31.23;;;29.52;;
53267;SDS011;39156;51.176;6.738;2023-07-31T12:28:42;31.48;;;29.77;;
53267;SDS011;39156;51.176;6.738;2023-07-31T12:31:21;31.58;;;29.88;;
53267;SDS011;39156;51.176;6.738;2023-07-31T12:33:48;31.23;;;29.63;;
53267;SDS011;39156;51.176;6.738;2023-07-31T12:36:16;30.42;;;28.83;;
53267;SDS011;39156;51.176;6.738;2023-07-31T12:38:44;32.95;;;31.15;;
53267;SDS011;39156;51.176;6.738;2023-07-31T12:41:10;32.63;;;30.75;;
53267;SDS011;39156;51.176;6.738;2023-07-31T12:43:38;32.40;;;30.65;;
53267;SDS011;39156;51.176;6.738;2023-07-31T12:46:05;31.15;;;29.35;;
53267;SDS011;39156;51.176;6.738;2023-07-31T12:48:35;30.17;;;28.58;;
53267;SDS011;39156;51.176;6.738;2023-07-31T12:51:02;30.15;;;28.60;;
53267;SDS011;39156;51.176;6.738;2023-07-31T12:53:28;30.90;;;29.30;;
53267;SDS011;39156;51.176;6.738;2023-07-31T12:55:55;31.77;;;30.08;;
53267;SDS011;39156;51.176;6.738;2023-07-31T12:58:21;31.13;;;29.42;;
53267;SDS011;39156;51.176;6.738;2023-07-31T13:00:47;30.80;;;29.17;;
53267;SDS011;39156;51.176;6.738;2023-07-31T13:03:12;30.95;;;29.30;;
53267;SDS011;39156;51.176;6.738;2023-07-31T13:05:38;32.08;;;30.38;;
53267;SDS011;39156;51.176;6.738;2023-07-31T13:08:04;31.45;;;29.55;;
53267;SDS011;39156;51.176;6.738;2023-07-31T13:10:30;32.53;;;30.63;;
53267;SDS011;39156;51.176;6.738;2023-07-31T13:12:56;31.52;;;29.83;;
53267;SDS011;39156;51.176;6.738;2023-07-31T13:15:21;32.63;;;30.65;;
53267;SDS011;39156;51.176;6.738;2023-07-31T13:17:48;31.50;;;29.80;;
53267;SDS011;39156;51.176;6.738;2023-07-31T13:20:14;31.43;;;29.73;;
53267;SDS011;39156;51.176;6.738;2023-07-31T13:22:39;31.38;;;29.67;;
53267;SDS011;39156;51.176;6.738;2023-07-31T13:25:05;32.60;;;30.90;;
53267;SDS011;39156;51.176;6.738;2023-07-31T13:29:58;31.73;;;29.92;;
53267;SDS011;39156;51.176;6.738;2023-07-31T13:32:25;31.65;;;29.85;;
53267;SDS011;39156;51.176;6.738;2023-07-31T13:34:51;31.38;;;29.48;;
53267;SDS011;39156;51.176;6.738;2023-07-31T13:37:17;31.88;;;30.17;;
53267;SDS011;39156;51.176;6.738;2023-07-31T13:39:43;31.85;;;30.00;;
53267;SDS011;39156;51.176;6.738;2023-07-31T13:42:09;31.17;;;29.48;;
53267;SDS011;39156;51.176;6.738;2023-07-31T13:44:37;31.35;;;29.65;;
53267;SDS011;39156;51.176;6.738;2023-07-31T13:47:04;30.77;;;29.17;;
53267;SDS011;39156;51.176;6.738;2023-07-31T13:49:29;30.30;;;28.67;;
53267;SDS011;39156;51.176;6.738;2023-07-31T13:51:55;31.60;;;29.38;;
53267;SDS011;39156;51.176;6.738;2023-07-31T13:54:22;31.30;;;29.60;;
53267;SDS011;39156;51.176;6.738;2023-07-31T13:56:48;31.20;;;29.50;;
53267;SDS011;39156;51.176;6.738;2023-07-31T13:59:15;32.05;;;30.17;;
53267;SDS011;39156;51.176;6.738;2023-07-31T14:01:41;31.35;;;29.65;;
53267;SDS011;39156;51.176;6.738;2023-07-31T14:06:33;31.60;;;29.80;;
53267;SDS011;39156;51.176;6.738;2023-07-31T14:08:59;31.70;;;29.90;;
53267;SDS011;39156;51.176;6.738;2023-07-31T14:11:26;31.75;;;29.92;;
53267;SDS011;39156;51.176;6.738;2023-07-31T14:13:52;31.42;;;29.73;;
53267;SDS011;39156;51.176;6.738;2023-07-31T14:16:17;33.03;;;31.30;;
53267;SDS011;39156;51.176;6.738;2023-07-31T14:18:43;32.58;;;30.65;;
53267;SDS011;39156;51.176;6.738;2023-07-31T14:21:10;32.25;;;30.08;;
53267;SDS011;39156;51.176;6.738;2023-07-31T14:26:02;31.67;;;29.98;;
53267;SDS011;39156;51.176;6.738;2023-07-31T14:28:28;31.37;;;29.57;;
53267;SDS011;39156;51.176;6.738;2023-07-31T14:30:54;31.10;;;29.30;;
53267;SDS011;39156;51.176;6.738;2023-07-31T14:33:19;31.03;;;29.33;;
53267;SDS011;39156;51.176;6.738;2023-07-31T14:35:45;31.37;;;29.47;;
53267;SDS011;39156;51.176;6.738;2023-07-31T14:38:11;31.30;;;29.60;;
53267;SDS011;39156;51.176;6.738;2023-07-31T14:40:37;31.05;;;29.45;;
53267;SDS011;39156;51.176;6.738;2023-07-31T14:43:03;32.03;;;30.23;;
53267;SDS011;39156;51.176;6.738;2023-07-31T14:45:29;33.58;;;31.67;;
53267;SDS011;39156;51.176;6.738;2023-07-31T14:47:55;32.28;;;30.40;;
53267;SDS011;39156;51.176;6.738;2023-07-31T14:50:20;33.73;;;31.63;;
53267;SDS011;39156;51.176;6.738;2023-07-31T14:52:47;32.45;;;30.65;;
53267;SDS011;39156;51.176;6.738;2023-07-31T14:55:13;33.38;;;31.48;;